Terminal Aerodrome Forecast
Issued by NWS

Home | Current Version | Previous Version | Text Only | Print | Product List | Glossary On
Versions: 1 2 3 4 5 6 7 8 9 10 11 12 13 14 15
000
FTAK31 PANC 211803 AAA
TAFAAQ
TAF AMD
PAAQ 211803Z 2118/2218 12011KT P6SM VCSH SCT040 BKN070
     FM212100 14014G23KT P6SM FEW050 BKN070
     FM220800 06005KT P6SM BKN080
     FM221500 04012KT P6SM SCT080=

USA.gov is the U.S. government's official web portal to all federal, state and local government web resources and services.